createdAt,value
2023-01-29T00:00:06.015Z,30.52
2023-01-29T00:02:32.316Z,28.95
2023-01-29T00:04:59.142Z,29.25
2023-01-29T00:07:25.597Z,29.02
2023-01-29T00:09:51.911Z,29.35
2023-01-29T00:12:18.258Z,29.55
2023-01-29T00:14:44.572Z,28.63
2023-01-29T00:17:10.939Z,27.60
2023-01-29T00:19:37.314Z,27.50
2023-01-29T00:22:03.751Z,27.05
2023-01-29T00:24:30.162Z,28.15
2023-01-29T00:26:56.495Z,28.67
2023-01-29T00:29:22.811Z,27.95
2023-01-29T00:31:49.389Z,26.60
2023-01-29T00:34:15.926Z,27.52
2023-01-29T00:36:42.327Z,28.65
2023-01-29T00:39:08.666Z,27.92
2023-01-29T00:41:34.974Z,29.10
2023-01-29T00:44:01.783Z,27.30
2023-01-29T00:46:28.293Z,27.63
2023-01-29T00:48:54.682Z,26.75
2023-01-29T00:51:20.997Z,27.60
2023-01-29T00:53:47.316Z,28.67
2023-01-29T00:56:13.623Z,26.77
2023-01-29T00:58:39.923Z,25.50
2023-01-29T01:01:06.243Z,27.83
2023-01-29T01:03:32.560Z,27.17
2023-01-29T01:06:06.284Z,27.23
2023-01-29T01:08:33.005Z,26.90
2023-01-29T01:11:04.994Z,27.90
2023-01-29T01:13:32.978Z,28.02
2023-01-29T01:15:59.964Z,27.27
2023-01-29T01:18:29.922Z,29.08
2023-01-29T01:20:59.353Z,28.70
2023-01-29T01:23:25.784Z,27.95
2023-01-29T01:25:52.099Z,27.60
2023-01-29T01:28:18.414Z,27.48
2023-01-29T01:30:44.736Z,27.75
2023-01-29T01:33:11.148Z,27.33
2023-01-29T01:35:39.097Z,28.42
2023-01-29T01:38:05.418Z,28.23
2023-01-29T01:40:31.961Z,27.73
2023-01-29T01:42:59.960Z,27.92
2023-01-29T01:45:35.267Z,27.98
2023-01-29T01:48:04.639Z,28.20
2023-01-29T01:51:03.360Z,28.10
2023-01-29T01:53:39.776Z,28.50
2023-01-29T01:56:11.235Z,30.35
2023-01-29T01:58:43.229Z,30.20
2023-01-29T02:01:11.188Z,30.05
2023-01-29T02:03:44.415Z,30.75
2023-01-29T02:06:11.433Z,32.72
2023-01-29T02:08:49.693Z,31.27
2023-01-29T02:11:19.741Z,31.17
2023-01-29T02:13:50.046Z,32.42
2023-01-29T02:16:16.342Z,33.47
2023-01-29T02:18:46.156Z,31.80
2023-01-29T02:21:31.292Z,31.92
2023-01-29T02:26:48.354Z,30.83
2023-01-29T02:29:43.826Z,32.28
2023-01-29T02:32:31.526Z,32.53
2023-01-29T02:35:00.919Z,32.60
2023-01-29T02:37:36.050Z,34.90
2023-01-29T02:40:14.641Z,32.78
2023-01-29T02:43:07.888Z,34.03
2023-01-29T02:45:50.254Z,34.95
2023-01-29T02:48:20.480Z,34.38
2023-01-29T02:50:59.323Z,34.67
2023-01-29T02:53:32.826Z,33.92
2023-01-29T02:56:10.299Z,35.10
2023-01-29T02:58:42.692Z,35.70
2023-01-29T03:03:40.517Z,34.28
2023-01-29T03:06:15.164Z,35.53
2023-01-29T03:08:43.230Z,36.50
2023-01-29T03:11:14.719Z,34.70
2023-01-29T03:14:05.551Z,36.97
2023-01-29T03:16:44.776Z,35.80
2023-01-29T03:19:14.061Z,35.05
2023-01-29T03:21:47.748Z,32.53
2023-01-29T03:24:16.222Z,37.50
2023-01-29T03:26:43.811Z,35.78
2023-01-29T03:29:12.282Z,34.80
2023-01-29T03:31:38.768Z,36.10
2023-01-29T03:34:13.672Z,35.15
2023-01-29T03:39:15.289Z,37.38
2023-01-29T03:42:03.159Z,37.83
2023-01-29T03:44:48.064Z,37.20
2023-01-29T03:47:47.773Z,36.95
2023-01-29T03:50:40.568Z,38.05
2023-01-29T03:53:29.982Z,36.75
2023-01-29T03:56:04.509Z,36.97
2023-01-29T03:58:39.383Z,38.78
2023-01-29T04:03:41.988Z,36.30
2023-01-29T04:06:20.408Z,37.55
2023-01-29T04:09:03.252Z,37.17
2023-01-29T04:11:31.035Z,38.00
2023-01-29T04:13:58.194Z,36.88
2023-01-29T04:16:38.966Z,39.03
2023-01-29T04:19:05.968Z,38.47
2023-01-29T04:21:32.627Z,38.83
2023-01-29T04:23:58.980Z,37.70
2023-01-29T04:26:42.346Z,38.42
2023-01-29T04:29:14.403Z,36.50
2023-01-29T04:31:55.616Z,37.25
2023-01-29T04:34:41.756Z,36.72
2023-01-29T04:37:23.087Z,36.13
2023-01-29T04:39:58.820Z,36.05
2023-01-29T04:42:40.315Z,37.08
2023-01-29T04:45:28.724Z,36.20
2023-01-29T04:48:04.104Z,36.88
2023-01-29T04:50:42.005Z,37.00
2023-01-29T04:53:20.537Z,37.42
2023-01-29T04:55:55.052Z,37.28
2023-01-29T04:58:36.974Z,37.00
2023-01-29T05:01:06.667Z,37.70
2023-01-29T05:03:36.215Z,35.97
2023-01-29T05:06:03.935Z,35.65
2023-01-29T05:08:32.537Z,36.38
2023-01-29T05:10:59.607Z,35.70
2023-01-29T05:13:28.721Z,36.78
2023-01-29T05:16:16.962Z,36.63
2023-01-29T05:18:43.445Z,37.03
2023-01-29T05:21:09.990Z,36.85
2023-01-29T05:23:36.842Z,38.83
2023-01-29T05:26:03.727Z,37.70
2023-01-29T05:28:30.230Z,38.53
2023-01-29T05:30:57.576Z,39.63
2023-01-29T05:33:29.306Z,37.45
2023-01-29T05:35:58.084Z,38.13
2023-01-29T05:38:24.860Z,37.53
2023-01-29T05:40:51.264Z,40.40
2023-01-29T05:43:23.528Z,40.38
2023-01-29T05:45:58.415Z,38.72
2023-01-29T05:48:26.664Z,37.78
2023-01-29T05:50:53.013Z,35.83
2023-01-29T05:53:19.402Z,39.58
2023-01-29T05:55:48.609Z,39.22
2023-01-29T05:58:14.964Z,39.55
2023-01-29T06:00:41.541Z,41.38
2023-01-29T06:03:11.940Z,38.85
2023-01-29T06:05:43.238Z,39.00
2023-01-29T06:08:11.736Z,37.80
2023-01-29T06:10:38.141Z,38.42
2023-01-29T06:13:04.554Z,40.67
2023-01-29T06:15:30.864Z,38.35
2023-01-29T06:17:57.407Z,41.42
2023-01-29T06:20:24.448Z,39.97
2023-01-29T06:22:50.808Z,39.85
2023-01-29T06:25:17.209Z,39.22
2023-01-29T06:27:43.511Z,38.08
2023-01-29T06:30:10.392Z,39.50
2023-01-29T06:32:36.782Z,39.85
2023-01-29T06:35:03.446Z,39.90
2023-01-29T06:37:29.771Z,42.88
2023-01-29T06:39:56.095Z,41.35
2023-01-29T06:42:22.383Z,42.72
2023-01-29T06:44:48.696Z,42.65
2023-01-29T06:47:15.051Z,40.22
2023-01-29T06:49:41.433Z,42.60
2023-01-29T06:52:07.718Z,39.97
2023-01-29T06:54:34.044Z,43.42
2023-01-29T06:57:00.345Z,41.90
2023-01-29T06:59:26.653Z,42.53
2023-01-29T07:01:53.008Z,40.65
2023-01-29T07:04:19.428Z,40.50
2023-01-29T07:06:45.807Z,42.38
2023-01-29T07:09:13.144Z,41.95
2023-01-29T07:11:40.147Z,42.63
2023-01-29T07:14:06.766Z,42.55
2023-01-29T07:16:33.318Z,42.85
2023-01-29T07:18:59.690Z,42.45
2023-01-29T07:21:26.034Z,41.42
2023-01-29T07:23:53.359Z,44.65
2023-01-29T07:26:20.239Z,42.92
2023-01-29T07:28:46.814Z,41.33
2023-01-29T07:31:14.010Z,40.83
2023-01-29T07:33:42.804Z,44.00
2023-01-29T07:36:10.465Z,39.42
2023-01-29T07:38:37.378Z,43.10
2023-01-29T07:41:03.915Z,42.88
2023-01-29T07:43:31.960Z,42.53
2023-01-29T07:46:02.424Z,41.42
2023-01-29T07:48:28.774Z,43.08
2023-01-29T07:50:56.460Z,41.90
2023-01-29T07:53:22.959Z,42.97
2023-01-29T07:55:49.293Z,43.20
2023-01-29T07:58:15.628Z,41.60
2023-01-29T08:00:41.969Z,41.10
2023-01-29T08:03:12.437Z,42.85
2023-01-29T08:05:38.775Z,42.60
2023-01-29T08:08:07.334Z,43.13
2023-01-29T08:10:38.340Z,42.97
2023-01-29T08:13:05.661Z,42.97
2023-01-29T08:15:32.368Z,44.47
2023-01-29T08:17:58.865Z,41.75
2023-01-29T08:20:25.617Z,41.15
2023-01-29T08:22:59.173Z,42.88
2023-01-29T08:25:25.809Z,42.88
2023-01-29T08:27:52.343Z,43.45
2023-01-29T08:30:18.746Z,42.88
2023-01-29T08:32:45.092Z,41.15
2023-01-29T08:35:11.400Z,42.70
2023-01-29T08:37:37.740Z,40.20
2023-01-29T08:40:04.521Z,41.30
2023-01-29T08:42:30.851Z,41.22
2023-01-29T08:44:57.163Z,41.40
2023-01-29T08:47:23.468Z,42.83
2023-01-29T08:49:49.786Z,40.72
2023-01-29T08:52:16.100Z,43.22
2023-01-29T08:54:42.419Z,41.47
2023-01-29T08:57:08.755Z,41.55
2023-01-29T08:59:35.080Z,39.10
2023-01-29T09:02:01.567Z,39.80
2023-01-29T09:04:27.974Z,37.95
2023-01-29T09:06:54.477Z,37.75
2023-01-29T09:09:20.819Z,39.15
2023-01-29T09:11:47.118Z,35.60
2023-01-29T09:14:13.411Z,36.53
2023-01-29T09:16:39.843Z,37.13
2023-01-29T09:19:06.153Z,37.58
2023-01-29T09:21:32.742Z,37.63
2023-01-29T09:23:59.068Z,39.58
2023-01-29T09:26:25.609Z,39.53
2023-01-29T09:28:51.930Z,38.40
2023-01-29T09:31:18.359Z,40.05
2023-01-29T09:33:44.740Z,39.65
2023-01-29T09:36:11.036Z,38.80
2023-01-29T09:38:37.358Z,40.03
2023-01-29T09:41:19.209Z,40.22
2023-01-29T09:43:57.250Z,40.55
2023-01-29T09:46:35.316Z,40.22
2023-01-29T09:49:08.825Z,39.83
2023-01-29T09:51:41.660Z,38.97
2023-01-29T09:54:25.772Z,40.53
2023-01-29T09:56:57.193Z,40.67
2023-01-29T09:59:27.387Z,42.00
2023-01-29T10:02:31.097Z,40.78
2023-01-29T10:05:12.119Z,40.53
2023-01-29T10:08:03.477Z,42.58
2023-01-29T10:10:44.100Z,41.45
2023-01-29T10:13:41.648Z,42.25
2023-01-29T10:16:41.499Z,42.47
2023-01-29T10:19:41.072Z,41.15
2023-01-29T10:22:45.236Z,42.53
2023-01-29T10:25:15.777Z,41.60
2023-01-29T10:27:48.413Z,43.92
2023-01-29T10:30:33.012Z,42.35
2023-01-29T10:33:03.689Z,35.03
2023-01-29T10:35:34.001Z,40.95
2023-01-29T10:38:18.441Z,40.53
2023-01-29T10:40:55.798Z,40.80
2023-01-29T10:43:54.266Z,40.97
2023-01-29T10:46:46.402Z,42.20
2023-01-29T10:49:35.261Z,40.55
2023-01-29T10:52:15.892Z,41.90
2023-01-29T10:55:07.879Z,41.58
2023-01-29T10:58:17.919Z,39.53
2023-01-29T11:00:44.303Z,40.67
2023-01-29T11:03:29.238Z,41.28
2023-01-29T11:08:26.787Z,42.50
2023-01-29T11:11:09.329Z,40.65
2023-01-29T11:13:58.929Z,42.38
2023-01-29T11:16:29.753Z,41.42
2023-01-29T11:18:59.164Z,41.60
2023-01-29T11:21:27.466Z,43.15
2023-01-29T11:24:14.667Z,42.50
2023-01-29T11:26:43.433Z,42.30
2023-01-29T11:29:28.791Z,42.38
2023-01-29T11:31:56.708Z,41.65
2023-01-29T11:34:24.899Z,39.45
2023-01-29T11:36:59.201Z,41.50
2023-01-29T11:39:27.453Z,41.00
2023-01-29T11:42:01.895Z,41.53
2023-01-29T11:44:31.529Z,41.78
2023-01-29T11:47:11.341Z,41.17
2023-01-29T11:49:38.971Z,41.40
2023-01-29T11:52:08.920Z,40.03
2023-01-29T11:54:49.043Z,39.08
2023-01-29T11:57:35.553Z,40.20
2023-01-29T12:00:06.980Z,39.22
2023-01-29T12:02:41.844Z,38.75
2023-01-29T12:07:45.151Z,38.88
2023-01-29T12:10:31.194Z,36.97
2023-01-29T12:13:09.421Z,38.03
2023-01-29T12:15:37.220Z,37.17
2023-01-29T12:18:18.626Z,34.72
2023-01-29T12:20:47.698Z,36.40
2023-01-29T12:23:41.334Z,32.10
2023-01-29T12:26:13.084Z,30.95
2023-01-29T12:28:53.916Z,32.17
2023-01-29T12:31:29.198Z,31.20
2023-01-29T12:34:26.831Z,31.08
2023-01-29T12:37:02.813Z,30.33
2023-01-29T12:39:29.154Z,31.35
2023-01-29T12:42:04.649Z,31.25
2023-01-29T12:44:36.738Z,30.50
2023-01-29T12:47:07.304Z,30.52
2023-01-29T12:49:38.924Z,30.98
2023-01-29T12:52:15.834Z,32.03
2023-01-29T12:54:49.942Z,31.77
2023-01-29T12:57:25.558Z,30.17
2023-01-29T13:00:19.258Z,30.30
2023-01-29T13:03:08.676Z,28.85
2023-01-29T13:05:48.595Z,30.27
2023-01-29T13:08:20.776Z,31.02
2023-01-29T13:10:53.617Z,30.75
2023-01-29T13:13:32.847Z,31.20
2023-01-29T13:16:00.212Z,29.63
2023-01-29T13:18:41.446Z,29.55
2023-01-29T13:21:13.617Z,30.50
2023-01-29T13:23:47.781Z,30.77
2023-01-29T13:26:18.384Z,30.15
2023-01-29T13:28:45.346Z,29.60
2023-01-29T13:31:13.494Z,31.35
2023-01-29T13:33:43.108Z,29.70
2023-01-29T13:36:24.031Z,31.15
2023-01-29T13:39:01.902Z,30.25
2023-01-29T13:41:41.772Z,30.05
2023-01-29T13:44:28.011Z,28.65
2023-01-29T13:47:03.721Z,29.15
2023-01-29T13:49:47.575Z,29.35
2023-01-29T13:52:21.229Z,28.27
2023-01-29T13:54:55.610Z,30.30
2023-01-29T13:57:35.362Z,30.00
2023-01-29T14:00:01.767Z,28.80
2023-01-29T14:02:29.679Z,30.67
2023-01-29T14:05:30.437Z,28.25
2023-01-29T14:08:01.994Z,28.77
2023-01-29T14:10:30.743Z,30.30
2023-01-29T14:13:15.511Z,31.40
2023-01-29T14:15:41.837Z,28.52
2023-01-29T14:18:08.112Z,30.23
2023-01-29T14:20:53.069Z,29.48
2023-01-29T14:23:33.480Z,29.30
2023-01-29T14:26:02.042Z,29.20
2023-01-29T14:28:30.736Z,30.10
2023-01-29T14:30:57.315Z,29.35
2023-01-29T14:33:41.175Z,28.98
2023-01-29T14:38:47.617Z,29.83
2023-01-29T14:41:29.173Z,29.55
2023-01-29T14:44:33.059Z,29.45
2023-01-29T14:46:59.437Z,29.52
2023-01-29T14:49:48.683Z,29.27
2023-01-29T14:52:16.555Z,29.70
2023-01-29T14:54:43.301Z,29.88
2023-01-29T14:57:14.860Z,30.75
2023-01-29T14:59:57.656Z,29.83
2023-01-29T15:02:37.704Z,31.05
2023-01-29T15:05:11.283Z,31.42
2023-01-29T15:08:00.559Z,31.00
2023-01-29T15:10:55.835Z,31.92
2023-01-29T15:13:41.907Z,30.58
2023-01-29T15:16:17.468Z,29.17
2023-01-29T15:18:43.854Z,30.55
2023-01-29T15:21:19.108Z,31.90
2023-01-29T15:23:46.630Z,31.52
2023-01-29T15:26:19.630Z,32.05
2023-01-29T15:29:02.141Z,31.88
2023-01-29T15:31:30.341Z,31.67
2023-01-29T15:33:56.939Z,31.85
2023-01-29T15:36:28.137Z,31.10
2023-01-29T15:39:26.882Z,33.63
2023-01-29T15:42:11.983Z,33.38
2023-01-29T15:44:44.882Z,31.67
2023-01-29T15:47:12.565Z,33.05
2023-01-29T15:49:40.231Z,32.95
2023-01-29T15:52:17.883Z,31.67
2023-01-29T15:54:44.595Z,32.58
2023-01-29T15:57:21.335Z,32.80
2023-01-29T15:59:48.151Z,32.72
2023-01-29T16:02:35.632Z,32.50
2023-01-29T16:05:03.486Z,32.85
2023-01-29T16:07:30.074Z,33.40
2023-01-29T16:09:57.441Z,32.53
2023-01-29T16:12:24.297Z,32.22
2023-01-29T16:14:51.319Z,33.67
2023-01-29T16:17:30.872Z,34.20
2023-01-29T16:20:02.520Z,32.10
2023-01-29T16:22:35.194Z,31.70
2023-01-29T16:25:04.125Z,31.88
2023-01-29T16:27:31.631Z,32.47
2023-01-29T16:29:58.235Z,31.30
2023-01-29T16:32:24.605Z,31.67
2023-01-29T16:34:57.203Z,31.70
2023-01-29T16:37:27.836Z,32.90
2023-01-29T16:39:54.811Z,32.00
2023-01-29T16:42:31.458Z,31.27
2023-01-29T16:45:02.189Z,31.67
2023-01-29T16:47:34.773Z,31.00
2023-01-29T16:50:22.875Z,31.88
2023-01-29T16:53:22.178Z,31.35
2023-01-29T16:55:52.311Z,31.80
2023-01-29T16:58:26.439Z,30.90
2023-01-29T17:00:56.321Z,31.35
2023-01-29T17:03:27.158Z,30.65
2023-01-29T17:05:53.968Z,29.73
2023-01-29T17:08:32.156Z,29.48
2023-01-29T17:10:59.754Z,29.77
2023-01-29T17:13:41.589Z,31.63
2023-01-29T17:16:23.091Z,28.98
2023-01-29T17:18:49.568Z,28.77
2023-01-29T17:21:15.926Z,30.38
2023-01-29T17:23:42.266Z,30.27
2023-01-29T17:26:12.650Z,30.30
2023-01-29T17:28:40.605Z,30.17
2023-01-29T17:31:07.450Z,29.00
2023-01-29T17:33:35.794Z,31.20
2023-01-29T17:36:02.177Z,29.60
2023-01-29T17:38:28.556Z,30.52
2023-01-29T17:41:23.503Z,29.38
2023-01-29T17:43:49.822Z,29.92
2023-01-29T17:46:17.600Z,30.55
2023-01-29T17:48:44.815Z,30.58
2023-01-29T17:51:13.676Z,30.02
2023-01-29T17:53:46.068Z,30.60
2023-01-29T17:56:24.408Z,31.83
2023-01-29T17:58:50.709Z,30.83
2023-01-29T18:01:16.996Z,33.55
2023-01-29T18:03:43.394Z,33.03
2023-01-29T18:06:11.612Z,33.55
2023-01-29T18:08:39.624Z,33.25
2023-01-29T18:11:11.153Z,36.55
2023-01-29T18:13:37.421Z,35.58
2023-01-29T18:16:03.871Z,36.28
2023-01-29T18:18:30.208Z,35.22
2023-01-29T18:20:56.513Z,37.53
2023-01-29T18:23:22.822Z,37.63
2023-01-29T18:25:49.166Z,36.20
2023-01-29T18:28:17.255Z,39.95
2023-01-29T18:30:45.160Z,38.72
2023-01-29T18:33:11.525Z,40.40
2023-01-29T18:35:37.850Z,38.67
2023-01-29T18:38:04.153Z,40.95
2023-01-29T18:40:31.483Z,38.80
2023-01-29T18:42:57.899Z,39.67
2023-01-29T18:45:24.215Z,41.38
2023-01-29T18:47:50.517Z,41.35
2023-01-29T18:50:16.960Z,37.60
2023-01-29T18:52:44.075Z,40.17
2023-01-29T18:55:10.495Z,39.13
2023-01-29T18:58:27.466Z,38.42
2023-01-29T19:00:23.839Z,40.38
2023-01-29T19:02:50.245Z,40.13
2023-01-29T19:05:17.185Z,39.28
2023-01-29T19:07:43.719Z,38.03
2023-01-29T19:10:10.664Z,39.63
2023-01-29T19:12:37.001Z,39.17
2023-01-29T19:15:03.469Z,39.58
2023-01-29T19:17:29.866Z,41.33
2023-01-29T19:19:56.237Z,40.60
2023-01-29T19:22:22.608Z,40.60
2023-01-29T19:24:48.923Z,41.40
2023-01-29T19:27:15.215Z,42.28
2023-01-29T19:29:41.546Z,44.05
2023-01-29T19:32:07.832Z,44.17
2023-01-29T19:34:34.191Z,45.88
2023-01-29T19:37:00.492Z,45.78
2023-01-29T19:39:26.800Z,44.85
2023-01-29T19:41:53.111Z,46.10
2023-01-29T19:44:19.427Z,47.42
2023-01-29T19:46:45.728Z,45.72
2023-01-29T19:49:12.120Z,45.55
2023-01-29T19:51:38.432Z,44.20
2023-01-29T19:54:04.744Z,44.97
2023-01-29T19:56:31.109Z,45.67
2023-01-29T19:58:57.492Z,45.08
2023-01-29T20:01:24.091Z,45.25
2023-01-29T20:03:51.005Z,43.88
2023-01-29T20:06:22.057Z,42.15
2023-01-29T20:08:48.380Z,43.13
2023-01-29T20:11:16.470Z,43.03
2023-01-29T20:13:43.138Z,42.42
2023-01-29T20:16:09.503Z,43.17
2023-01-29T20:18:35.828Z,41.45
2023-01-29T20:21:07.296Z,41.47
2023-01-29T20:23:38.108Z,41.25
2023-01-29T20:26:06.430Z,41.03
2023-01-29T20:28:33.004Z,38.65
2023-01-29T20:30:59.390Z,38.70
2023-01-29T20:33:26.465Z,39.45
2023-01-29T20:35:54.549Z,37.70
2023-01-29T20:38:21.067Z,36.67
2023-01-29T20:40:47.355Z,35.72
2023-01-29T20:43:13.680Z,34.92
2023-01-29T20:45:40.097Z,34.33
2023-01-29T20:48:06.776Z,35.83
2023-01-29T20:50:34.544Z,35.53
2023-01-29T20:53:01.353Z,33.42
2023-01-29T20:55:27.999Z,35.28
2023-01-29T20:58:06.446Z,35.63
2023-01-29T21:00:33.430Z,33.55
2023-01-29T21:02:59.819Z,34.17
2023-01-29T21:05:26.146Z,35.30
2023-01-29T21:07:52.474Z,34.60
2023-01-29T21:10:19.155Z,33.60
2023-01-29T21:12:45.560Z,35.03
2023-01-29T21:15:11.862Z,34.33
2023-01-29T21:17:38.252Z,34.05
2023-01-29T21:20:04.888Z,34.42
2023-01-29T21:22:31.522Z,34.22
2023-01-29T21:24:57.849Z,34.08
2023-01-29T21:27:25.029Z,35.15
2023-01-29T21:29:51.502Z,33.75
2023-01-29T21:32:17.880Z,33.25
2023-01-29T21:34:44.307Z,32.47
2023-01-29T21:37:10.652Z,33.22
2023-01-29T21:39:36.978Z,31.98
2023-01-29T21:42:03.464Z,31.45
2023-01-29T21:44:29.933Z,32.47
2023-01-29T21:46:56.390Z,31.25
2023-01-29T21:49:23.199Z,30.73
2023-01-29T21:51:49.551Z,30.20
2023-01-29T21:54:16.133Z,31.70
2023-01-29T21:56:42.566Z,31.55
2023-01-29T21:59:09.265Z,30.50
2023-01-29T22:01:36.928Z,31.48
2023-01-29T22:04:04.729Z,31.70
2023-01-29T22:06:31.035Z,31.80
2023-01-29T22:08:57.507Z,32.53
2023-01-29T22:11:23.941Z,32.38
2023-01-29T22:13:50.250Z,31.77
2023-01-29T22:16:16.543Z,30.67
2023-01-29T22:18:42.859Z,31.23
2023-01-29T22:21:09.203Z,31.45
2023-01-29T22:23:35.541Z,30.75
2023-01-29T22:26:06.473Z,32.10
2023-01-29T22:28:32.854Z,31.58
2023-01-29T22:31:03.000Z,31.67
2023-01-29T22:33:29.308Z,32.67
2023-01-29T22:35:56.309Z,33.17
2023-01-29T22:38:23.253Z,31.85
2023-01-29T22:40:54.023Z,32.70
2023-01-29T22:43:20.883Z,34.28
2023-01-29T22:45:47.302Z,34.33
2023-01-29T22:48:14.304Z,35.03
2023-01-29T22:50:40.949Z,33.20
2023-01-29T22:53:07.375Z,34.20
2023-01-29T22:55:33.681Z,35.38
2023-01-29T22:58:00.684Z,34.95
2023-01-29T23:00:26.998Z,36.88
2023-01-29T23:02:53.298Z,34.70
2023-01-29T23:05:19.586Z,36.22
2023-01-29T23:07:45.946Z,36.13
2023-01-29T23:10:16.212Z,35.75
2023-01-29T23:12:42.722Z,36.47
2023-01-29T23:15:09.333Z,36.33
2023-01-29T23:17:35.664Z,36.10
2023-01-29T23:20:01.976Z,37.13
2023-01-29T23:22:28.352Z,36.08
2023-01-29T23:24:54.656Z,37.30
2023-01-29T23:27:21.011Z,37.20
2023-01-29T23:29:48.386Z,35.60
2023-01-29T23:32:17.710Z,36.17
2023-01-29T23:34:44.040Z,37.20
2023-01-29T23:37:10.341Z,36.28
2023-01-29T23:39:36.717Z,36.95
2023-01-29T23:42:03.451Z,36.58
2023-01-29T23:44:29.781Z,36.92
2023-01-29T23:46:56.115Z,37.75
2023-01-29T23:49:22.617Z,36.95
2023-01-29T23:51:49.894Z,37.38
2023-01-29T23:54:17.167Z,38.80
2023-01-29T23:56:44.376Z,38.05
2023-01-29T23:59:11.069Z,39.97
